sensor_id;sensor_type;location;lat;lon;timestamp;P1;durP1;ratioP1;P2;durP2;ratioP2
6392;SDS011;3229;42.674;23.282;2023-06-14T00:00:00;12.13;;;9.00;;
6392;SDS011;3229;42.674;23.282;2023-06-14T00:02:30;11.33;;;9.00;;
6392;SDS011;3229;42.674;23.282;2023-06-14T00:04:57;12.17;;;9.83;;
6392;SDS011;3229;42.674;23.282;2023-06-14T00:07:33;10.20;;;8.27;;
6392;SDS011;3229;42.674;23.282;2023-06-14T00:10:00;10.47;;;8.63;;
6392;SDS011;3229;42.674;23.282;2023-06-14T00:12:27;12.20;;;8.17;;
6392;SDS011;3229;42.674;23.282;2023-06-14T00:14:54;10.43;;;8.00;;
6392;SDS011;3229;42.674;23.282;2023-06-14T00:17:21;9.67;;;8.63;;
6392;SDS011;3229;42.674;23.282;2023-06-14T00:19:50;13.37;;;8.07;;
6392;SDS011;3229;42.674;23.282;2023-06-14T00:22:17;14.03;;;8.27;;
6392;SDS011;3229;42.674;23.282;2023-06-14T00:24:45;11.17;;;8.23;;
6392;SDS011;3229;42.674;23.282;2023-06-14T00:27:11;10.30;;;8.60;;
6392;SDS011;3229;42.674;23.282;2023-06-14T00:29:38;8.83;;;7.93;;
6392;SDS011;3229;42.674;23.282;2023-06-14T00:32:05;8.77;;;7.87;;
6392;SDS011;3229;42.674;23.282;2023-06-14T00:34:32;10.27;;;7.47;;
6392;SDS011;3229;42.674;23.282;2023-06-14T00:37:01;8.63;;;7.73;;
6392;SDS011;3229;42.674;23.282;2023-06-14T00:39:27;8.03;;;7.20;;
6392;SDS011;3229;42.674;23.282;2023-06-14T00:41:54;9.20;;;7.80;;
6392;SDS011;3229;42.674;23.282;2023-06-14T00:44:21;12.87;;;7.53;;
6392;SDS011;3229;42.674;23.282;2023-06-14T00:46:48;7.73;;;6.93;;
6392;SDS011;3229;42.674;23.282;2023-06-14T00:49:16;7.83;;;6.63;;
6392;SDS011;3229;42.674;23.282;2023-06-14T00:51:44;7.57;;;6.77;;
6392;SDS011;3229;42.674;23.282;2023-06-14T00:54:12;14.00;;;7.73;;
6392;SDS011;3229;42.674;23.282;2023-06-14T00:56:39;7.00;;;6.27;;
6392;SDS011;3229;42.674;23.282;2023-06-14T00:59:07;7.90;;;7.20;;
6392;SDS011;3229;42.674;23.282;2023-06-14T01:01:36;9.50;;;7.07;;
6392;SDS011;3229;42.674;23.282;2023-06-14T01:04:04;6.50;;;5.60;;
6392;SDS011;3229;42.674;23.282;2023-06-14T01:06:33;7.23;;;6.50;;
6392;SDS011;3229;42.674;23.282;2023-06-14T01:09:13;6.20;;;5.70;;
6392;SDS011;3229;42.674;23.282;2023-06-14T01:11:51;6.23;;;5.63;;
6392;SDS011;3229;42.674;23.282;2023-06-14T01:14:31;6.40;;;5.80;;
6392;SDS011;3229;42.674;23.282;2023-06-14T01:17:00;6.67;;;5.97;;
6392;SDS011;3229;42.674;23.282;2023-06-14T01:19:28;8.27;;;6.80;;
6392;SDS011;3229;42.674;23.282;2023-06-14T01:21:56;7.30;;;6.40;;
6392;SDS011;3229;42.674;23.282;2023-06-14T01:24:27;8.63;;;7.27;;
6392;SDS011;3229;42.674;23.282;2023-06-14T01:26:57;9.67;;;8.43;;
6392;SDS011;3229;42.674;23.282;2023-06-14T01:29:25;10.47;;;9.30;;
6392;SDS011;3229;42.674;23.282;2023-06-14T01:31:57;9.70;;;8.37;;
6392;SDS011;3229;42.674;23.282;2023-06-14T01:34:25;11.40;;;7.57;;
6392;SDS011;3229;42.674;23.282;2023-06-14T01:36:52;7.10;;;6.30;;
6392;SDS011;3229;42.674;23.282;2023-06-14T01:39:20;7.63;;;6.87;;
6392;SDS011;3229;42.674;23.282;2023-06-14T01:41:50;6.43;;;5.83;;
6392;SDS011;3229;42.674;23.282;2023-06-14T01:44:18;7.60;;;6.40;;
6392;SDS011;3229;42.674;23.282;2023-06-14T01:46:46;7.20;;;5.63;;
6392;SDS011;3229;42.674;23.282;2023-06-14T01:49:13;5.50;;;5.00;;
6392;SDS011;3229;42.674;23.282;2023-06-14T01:51:40;5.27;;;4.87;;
6392;SDS011;3229;42.674;23.282;2023-06-14T01:54:07;4.80;;;4.40;;
6392;SDS011;3229;42.674;23.282;2023-06-14T01:56:33;5.40;;;4.90;;
6392;SDS011;3229;42.674;23.282;2023-06-14T01:59:02;5.13;;;4.63;;
6392;SDS011;3229;42.674;23.282;2023-06-14T02:01:28;6.23;;;5.63;;
6392;SDS011;3229;42.674;23.282;2023-06-14T02:03:56;6.70;;;5.63;;
6392;SDS011;3229;42.674;23.282;2023-06-14T02:06:23;5.03;;;4.63;;
6392;SDS011;3229;42.674;23.282;2023-06-14T02:08:52;7.27;;;4.97;;
6392;SDS011;3229;42.674;23.282;2023-06-14T02:11:19;7.80;;;5.83;;
6392;SDS011;3229;42.674;23.282;2023-06-14T02:13:46;6.00;;;5.50;;
6392;SDS011;3229;42.674;23.282;2023-06-14T02:16:14;8.43;;;6.00;;
6392;SDS011;3229;42.674;23.282;2023-06-14T02:18:42;6.33;;;5.30;;
6392;SDS011;3229;42.674;23.282;2023-06-14T02:21:09;5.60;;;5.10;;
6392;SDS011;3229;42.674;23.282;2023-06-14T02:23:35;5.70;;;5.10;;
6392;SDS011;3229;42.674;23.282;2023-06-14T02:26:02;9.20;;;5.50;;
6392;SDS011;3229;42.674;23.282;2023-06-14T02:28:29;5.83;;;5.33;;
6392;SDS011;3229;42.674;23.282;2023-06-14T02:30:56;6.10;;;5.40;;
6392;SDS011;3229;42.674;23.282;2023-06-14T02:33:24;6.40;;;5.80;;
6392;SDS011;3229;42.674;23.282;2023-06-14T02:35:51;6.40;;;5.20;;
6392;SDS011;3229;42.674;23.282;2023-06-14T02:38:17;6.53;;;5.20;;
6392;SDS011;3229;42.674;23.282;2023-06-14T02:40:44;5.27;;;4.80;;
6392;SDS011;3229;42.674;23.282;2023-06-14T02:43:11;7.30;;;5.23;;
6392;SDS011;3229;42.674;23.282;2023-06-14T02:45:38;5.37;;;4.87;;
6392;SDS011;3229;42.674;23.282;2023-06-14T02:48:05;5.50;;;5.10;;
6392;SDS011;3229;42.674;23.282;2023-06-14T02:50:33;5.73;;;5.17;;
6392;SDS011;3229;42.674;23.282;2023-06-14T02:53:00;5.60;;;5.10;;
6392;SDS011;3229;42.674;23.282;2023-06-14T02:55:28;7.57;;;4.80;;
6392;SDS011;3229;42.674;23.282;2023-06-14T02:57:54;5.50;;;5.07;;
6392;SDS011;3229;42.674;23.282;2023-06-14T03:00:21;5.77;;;5.27;;
6392;SDS011;3229;42.674;23.282;2023-06-14T03:02:48;5.93;;;5.43;;
6392;SDS011;3229;42.674;23.282;2023-06-14T03:05:16;7.97;;;4.77;;
6392;SDS011;3229;42.674;23.282;2023-06-14T03:07:47;5.40;;;5.00;;
6392;SDS011;3229;42.674;23.282;2023-06-14T03:10:15;8.23;;;5.30;;
6392;SDS011;3229;42.674;23.282;2023-06-14T03:12:42;5.63;;;5.13;;
6392;SDS011;3229;42.674;23.282;2023-06-14T03:15:09;5.53;;;5.03;;
6392;SDS011;3229;42.674;23.282;2023-06-14T03:17:38;5.03;;;4.63;;
6392;SDS011;3229;42.674;23.282;2023-06-14T03:20:06;5.53;;;4.63;;
6392;SDS011;3229;42.674;23.282;2023-06-14T03:22:34;7.03;;;4.60;;
6392;SDS011;3229;42.674;23.282;2023-06-14T03:25:02;5.97;;;5.47;;
6392;SDS011;3229;42.674;23.282;2023-06-14T03:27:30;6.00;;;5.30;;
6392;SDS011;3229;42.674;23.282;2023-06-14T03:29:57;5.93;;;5.43;;
6392;SDS011;3229;42.674;23.282;2023-06-14T03:32:24;5.27;;;4.83;;
6392;SDS011;3229;42.674;23.282;2023-06-14T03:34:51;6.60;;;5.40;;
6392;SDS011;3229;42.674;23.282;2023-06-14T03:37:17;8.00;;;5.83;;
6392;SDS011;3229;42.674;23.282;2023-06-14T03:39:44;5.63;;;5.17;;
6392;SDS011;3229;42.674;23.282;2023-06-14T03:42:14;5.80;;;5.30;;
6392;SDS011;3229;42.674;23.282;2023-06-14T03:44:41;6.87;;;5.83;;
6392;SDS011;3229;42.674;23.282;2023-06-14T03:47:07;5.93;;;5.43;;
6392;SDS011;3229;42.674;23.282;2023-06-14T03:49:35;5.83;;;5.33;;
6392;SDS011;3229;42.674;23.282;2023-06-14T03:52:02;11.43;;;5.60;;
6392;SDS011;3229;42.674;23.282;2023-06-14T03:54:30;5.37;;;4.97;;
6392;SDS011;3229;42.674;23.282;2023-06-14T03:56:57;5.53;;;5.10;;
6392;SDS011;3229;42.674;23.282;2023-06-14T03:59:26;5.40;;;4.90;;
6392;SDS011;3229;42.674;23.282;2023-06-14T04:01:53;6.87;;;4.60;;
6392;SDS011;3229;42.674;23.282;2023-06-14T04:04:20;5.93;;;5.33;;
6392;SDS011;3229;42.674;23.282;2023-06-14T04:06:53;5.77;;;5.00;;
6392;SDS011;3229;42.674;23.282;2023-06-14T04:09:21;6.07;;;5.37;;
6392;SDS011;3229;42.674;23.282;2023-06-14T04:11:49;6.57;;;5.90;;
6392;SDS011;3229;42.674;23.282;2023-06-14T04:14:17;7.80;;;4.70;;
6392;SDS011;3229;42.674;23.282;2023-06-14T04:16:45;7.10;;;5.50;;
6392;SDS011;3229;42.674;23.282;2023-06-14T04:19:12;9.03;;;5.57;;
6392;SDS011;3229;42.674;23.282;2023-06-14T04:21:39;6.47;;;5.87;;
6392;SDS011;3229;42.674;23.282;2023-06-14T04:24:07;8.77;;;6.10;;
6392;SDS011;3229;42.674;23.282;2023-06-14T04:26:38;6.77;;;6.17;;
6392;SDS011;3229;42.674;23.282;2023-06-14T04:29:05;7.13;;;6.43;;
6392;SDS011;3229;42.674;23.282;2023-06-14T04:31:32;8.17;;;7.13;;
6392;SDS011;3229;42.674;23.282;2023-06-14T04:34:00;8.43;;;6.30;;
6392;SDS011;3229;42.674;23.282;2023-06-14T04:36:30;7.57;;;6.87;;
6392;SDS011;3229;42.674;23.282;2023-06-14T04:38:59;6.60;;;6.00;;
6392;SDS011;3229;42.674;23.282;2023-06-14T04:41:28;6.90;;;6.20;;
6392;SDS011;3229;42.674;23.282;2023-06-14T04:43:55;7.57;;;6.88;;
6392;SDS011;3229;42.674;23.282;2023-06-14T04:46:23;7.50;;;6.40;;
6392;SDS011;3229;42.674;23.282;2023-06-14T04:48:51;7.72;;;7.03;;
6392;SDS011;3229;42.674;23.282;2023-06-14T04:51:19;8.13;;;6.90;;
6392;SDS011;3229;42.674;23.282;2023-06-14T04:53:47;7.78;;;6.97;;
6392;SDS011;3229;42.674;23.282;2023-06-14T04:56:15;10.05;;;7.00;;
6392;SDS011;3229;42.674;23.282;2023-06-14T04:58:42;8.18;;;7.43;;
6392;SDS011;3229;42.674;23.282;2023-06-14T05:01:09;7.70;;;6.78;;
6392;SDS011;3229;42.674;23.282;2023-06-14T05:03:36;6.95;;;6.25;;
6392;SDS011;3229;42.674;23.282;2023-06-14T05:06:03;7.28;;;6.57;;
6392;SDS011;3229;42.674;23.282;2023-06-14T05:08:31;7.00;;;6.35;;
6392;SDS011;3229;42.674;23.282;2023-06-14T05:10:58;10.45;;;7.53;;
6392;SDS011;3229;42.674;23.282;2023-06-14T05:13:24;7.35;;;6.53;;
6392;SDS011;3229;42.674;23.282;2023-06-14T05:15:53;9.55;;;7.30;;
6392;SDS011;3229;42.674;23.282;2023-06-14T05:18:20;7.97;;;7.25;;
6392;SDS011;3229;42.674;23.282;2023-06-14T05:20:46;8.30;;;7.50;;
6392;SDS011;3229;42.674;23.282;2023-06-14T05:23:13;9.15;;;7.97;;
6392;SDS011;3229;42.674;23.282;2023-06-14T05:25:42;7.72;;;7.03;;
6392;SDS011;3229;42.674;23.282;2023-06-14T05:28:10;9.50;;;7.55;;
6392;SDS011;3229;42.674;23.282;2023-06-14T05:30:37;8.77;;;7.97;;
6392;SDS011;3229;42.674;23.282;2023-06-14T05:33:05;12.05;;;8.25;;
6392;SDS011;3229;42.674;23.282;2023-06-14T05:35:32;11.38;;;7.88;;
6392;SDS011;3229;42.674;23.282;2023-06-14T05:37:58;8.90;;;7.55;;
6392;SDS011;3229;42.674;23.282;2023-06-14T05:40:27;9.00;;;8.10;;
6392;SDS011;3229;42.674;23.282;2023-06-14T05:42:55;8.30;;;7.55;;
6392;SDS011;3229;42.674;23.282;2023-06-14T05:45:22;9.98;;;7.28;;
6392;SDS011;3229;42.674;23.282;2023-06-14T05:47:49;9.38;;;8.48;;
6392;SDS011;3229;42.674;23.282;2023-06-14T05:50:16;12.68;;;8.48;;
6392;SDS011;3229;42.674;23.282;2023-06-14T05:52:43;9.32;;;8.23;;
6392;SDS011;3229;42.674;23.282;2023-06-14T05:55:10;12.43;;;9.18;;
6392;SDS011;3229;42.674;23.282;2023-06-14T05:57:37;9.20;;;8.27;;
6392;SDS011;3229;42.674;23.282;2023-06-14T06:00:06;10.70;;;9.60;;
6392;SDS011;3229;42.674;23.282;2023-06-14T06:02:36;9.07;;;8.07;;
6392;SDS011;3229;42.674;23.282;2023-06-14T06:05:03;10.05;;;8.45;;
6392;SDS011;3229;42.674;23.282;2023-06-14T06:07:31;10.55;;;8.73;;
6392;SDS011;3229;42.674;23.282;2023-06-14T06:09:58;11.32;;;8.32;;
6392;SDS011;3229;42.674;23.282;2023-06-14T06:12:25;9.75;;;8.73;;
6392;SDS011;3229;42.674;23.282;2023-06-14T06:14:51;8.32;;;7.53;;
6392;SDS011;3229;42.674;23.282;2023-06-14T06:17:20;9.02;;;7.93;;
6392;SDS011;3229;42.674;23.282;2023-06-14T06:19:46;8.57;;;7.72;;
6392;SDS011;3229;42.674;23.282;2023-06-14T06:22:13;9.98;;;6.68;;
6392;SDS011;3229;42.674;23.282;2023-06-14T06:24:40;7.93;;;7.13;;
6392;SDS011;3229;42.674;23.282;2023-06-14T06:27:07;7.32;;;6.63;;
6392;SDS011;3229;42.674;23.282;2023-06-14T06:29:34;7.55;;;6.80;;
6392;SDS011;3229;42.674;23.282;2023-06-14T06:32:01;10.48;;;7.43;;
6392;SDS011;3229;42.674;23.282;2023-06-14T06:34:29;10.27;;;8.13;;
6392;SDS011;3229;42.674;23.282;2023-06-14T06:36:56;10.32;;;7.03;;
6392;SDS011;3229;42.674;23.282;2023-06-14T06:39:23;9.27;;;8.25;;
6392;SDS011;3229;42.674;23.282;2023-06-14T06:41:50;9.75;;;8.43;;
6392;SDS011;3229;42.674;23.282;2023-06-14T06:44:17;11.60;;;8.90;;
6392;SDS011;3229;42.674;23.282;2023-06-14T06:46:44;10.65;;;9.02;;
6392;SDS011;3229;42.674;23.282;2023-06-14T06:49:10;9.35;;;8.20;;
6392;SDS011;3229;42.674;23.282;2023-06-14T06:51:41;10.45;;;8.18;;
6392;SDS011;3229;42.674;23.282;2023-06-14T06:54:08;9.60;;;8.50;;
6392;SDS011;3229;42.674;23.282;2023-06-14T06:56:35;11.35;;;8.95;;
6392;SDS011;3229;42.674;23.282;2023-06-14T06:59:02;10.48;;;9.23;;
6392;SDS011;3229;42.674;23.282;2023-06-14T07:01:29;11.65;;;9.60;;
6392;SDS011;3229;42.674;23.282;2023-06-14T07:03:58;9.95;;;8.82;;
6392;SDS011;3229;42.674;23.282;2023-06-14T07:06:25;12.45;;;9.45;;
6392;SDS011;3229;42.674;23.282;2023-06-14T07:08:54;12.40;;;9.20;;
6392;SDS011;3229;42.674;23.282;2023-06-14T07:11:26;11.60;;;9.70;;
6392;SDS011;3229;42.674;23.282;2023-06-14T07:13:53;9.95;;;8.82;;
6392;SDS011;3229;42.674;23.282;2023-06-14T07:16:20;11.18;;;9.45;;
6392;SDS011;3229;42.674;23.282;2023-06-14T07:18:46;13.07;;;10.02;;
6392;SDS011;3229;42.674;23.282;2023-06-14T07:21:13;10.02;;;9.00;;
6392;SDS011;3229;42.674;23.282;2023-06-14T07:23:40;9.27;;;8.38;;
6392;SDS011;3229;42.674;23.282;2023-06-14T07:26:08;9.80;;;8.82;;
6392;SDS011;3229;42.674;23.282;2023-06-14T07:28:35;11.98;;;7.80;;
6392;SDS011;3229;42.674;23.282;2023-06-14T07:31:02;9.68;;;8.40;;
6392;SDS011;3229;42.674;23.282;2023-06-14T07:33:29;9.25;;;7.95;;
6392;SDS011;3229;42.674;23.282;2023-06-14T07:35:55;8.60;;;7.20;;
6392;SDS011;3229;42.674;23.282;2023-06-14T07:38:22;10.45;;;8.93;;
6392;SDS011;3229;42.674;23.282;2023-06-14T07:40:49;10.18;;;7.82;;
6392;SDS011;3229;42.674;23.282;2023-06-14T07:43:17;13.43;;;10.05;;
6392;SDS011;3229;42.674;23.282;2023-06-14T07:45:44;13.57;;;8.82;;
6392;SDS011;3229;42.674;23.282;2023-06-14T07:48:11;10.52;;;9.48;;
6392;SDS011;3229;42.674;23.282;2023-06-14T07:50:37;11.05;;;9.05;;
6392;SDS011;3229;42.674;23.282;2023-06-14T07:53:04;12.07;;;9.70;;
6392;SDS011;3229;42.674;23.282;2023-06-14T07:55:31;16.50;;;10.27;;
6392;SDS011;3229;42.674;23.282;2023-06-14T07:58:01;10.95;;;9.77;;
6392;SDS011;3229;42.674;23.282;2023-06-14T08:00:29;9.95;;;8.98;;
6392;SDS011;3229;42.674;23.282;2023-06-14T08:02:56;11.25;;;8.73;;
6392;SDS011;3229;42.674;23.282;2023-06-14T08:05:24;10.05;;;8.15;;
6392;SDS011;3229;42.674;23.282;2023-06-14T08:07:52;11.38;;;9.32;;
6392;SDS011;3229;42.674;23.282;2023-06-14T08:10:19;12.10;;;8.00;;
6392;SDS011;3229;42.674;23.282;2023-06-14T08:12:46;9.65;;;8.55;;
6392;SDS011;3229;42.674;23.282;2023-06-14T08:15:13;9.15;;;8.25;;
6392;SDS011;3229;42.674;23.282;2023-06-14T08:17:43;10.68;;;9.65;;
6392;SDS011;3229;42.674;23.282;2023-06-14T08:20:10;10.60;;;8.77;;
6392;SDS011;3229;42.674;23.282;2023-06-14T08:22:38;10.25;;;8.43;;
6392;SDS011;3229;42.674;23.282;2023-06-14T08:25:07;10.25;;;7.68;;
6392;SDS011;3229;42.674;23.282;2023-06-14T08:27:35;11.13;;;8.20;;
6392;SDS011;3229;42.674;23.282;2023-06-14T08:30:02;9.68;;;7.80;;
6392;SDS011;3229;42.674;23.282;2023-06-14T08:32:29;10.85;;;8.45;;
6392;SDS011;3229;42.674;23.282;2023-06-14T08:34:57;11.10;;;8.40;;
6392;SDS011;3229;42.674;23.282;2023-06-14T08:37:24;9.40;;;7.90;;
6392;SDS011;3229;42.674;23.282;2023-06-14T08:39:52;9.43;;;8.45;;
6392;SDS011;3229;42.674;23.282;2023-06-14T08:42:18;14.90;;;8.45;;
6392;SDS011;3229;42.674;23.282;2023-06-14T08:44:47;9.48;;;8.40;;
6392;SDS011;3229;42.674;23.282;2023-06-14T08:47:14;8.93;;;8.00;;
6392;SDS011;3229;42.674;23.282;2023-06-14T08:49:45;14.15;;;10.27;;
6392;SDS011;3229;42.674;23.282;2023-06-14T08:52:15;11.02;;;9.52;;
6392;SDS011;3229;42.674;23.282;2023-06-14T08:54:45;12.57;;;10.25;;
6392;SDS011;3229;42.674;23.282;2023-06-14T08:57:14;10.10;;;9.07;;
6392;SDS011;3229;42.674;23.282;2023-06-14T08:59:45;10.30;;;8.10;;
6392;SDS011;3229;42.674;23.282;2023-06-14T09:02:14;9.32;;;8.25;;
6392;SDS011;3229;42.674;23.282;2023-06-14T09:04:44;10.80;;;9.45;;
6392;SDS011;3229;42.674;23.282;2023-06-14T09:07:11;13.30;;;10.02;;
6392;SDS011;3229;42.674;23.282;2023-06-14T09:09:40;10.40;;;9.32;;
6392;SDS011;3229;42.674;23.282;2023-06-14T09:12:08;10.82;;;9.80;;
6392;SDS011;3229;42.674;23.282;2023-06-14T09:14:37;11.10;;;10.00;;
6392;SDS011;3229;42.674;23.282;2023-06-14T09:17:07;11.10;;;9.98;;
6392;SDS011;3229;42.674;23.282;2023-06-14T09:19:34;9.25;;;8.27;;
6392;SDS011;3229;42.674;23.282;2023-06-14T09:22:02;10.32;;;9.30;;
6392;SDS011;3229;42.674;23.282;2023-06-14T09:24:29;13.98;;;9.02;;
6392;SDS011;3229;42.674;23.282;2023-06-14T09:26:57;11.20;;;9.75;;
6392;SDS011;3229;42.674;23.282;2023-06-14T09:29:24;10.25;;;9.25;;
6392;SDS011;3229;42.674;23.282;2023-06-14T09:31:53;9.50;;;8.57;;
6392;SDS011;3229;42.674;23.282;2023-06-14T09:34:19;9.15;;;8.25;;
6392;SDS011;3229;42.674;23.282;2023-06-14T09:36:48;9.32;;;8.38;;
6392;SDS011;3229;42.674;23.282;2023-06-14T09:39:16;10.07;;;9.18;;
6392;SDS011;3229;42.674;23.282;2023-06-14T09:41:44;10.18;;;9.20;;
6392;SDS011;3229;42.674;23.282;2023-06-14T09:44:12;9.95;;;9.05;;
6392;SDS011;3229;42.674;23.282;2023-06-14T09:46:39;10.25;;;9.15;;
6392;SDS011;3229;42.674;23.282;2023-06-14T09:49:06;12.13;;;8.68;;
6392;SDS011;3229;42.674;23.282;2023-06-14T09:51:33;10.18;;;9.18;;
6392;SDS011;3229;42.674;23.282;2023-06-14T09:54:06;8.65;;;7.78;;
6392;SDS011;3229;42.674;23.282;2023-06-14T09:56:35;9.32;;;8.05;;
6392;SDS011;3229;42.674;23.282;2023-06-14T09:59:04;9.98;;;8.82;;
6392;SDS011;3229;42.674;23.282;2023-06-14T10:01:34;10.93;;;8.82;;
6392;SDS011;3229;42.674;23.282;2023-06-14T10:04:06;10.32;;;9.25;;
6392;SDS011;3229;42.674;23.282;2023-06-14T10:06:35;9.95;;;8.93;;
6392;SDS011;3229;42.674;23.282;2023-06-14T10:09:04;10.43;;;9.18;;
6392;SDS011;3229;42.674;23.282;2023-06-14T10:11:34;12.02;;;9.23;;
6392;SDS011;3229;42.674;23.282;2023-06-14T10:14:02;10.60;;;9.48;;
6392;SDS011;3229;42.674;23.282;2023-06-14T10:16:32;12.73;;;8.98;;
6392;SDS011;3229;42.674;23.282;2023-06-14T10:19:07;11.02;;;9.77;;
6392;SDS011;3229;42.674;23.282;2023-06-14T10:21:43;11.00;;;10.00;;
6392;SDS011;3229;42.674;23.282;2023-06-14T10:24:23;9.48;;;8.50;;
6392;SDS011;3229;42.674;23.282;2023-06-14T10:26:56;11.98;;;9.23;;
6392;SDS011;3229;42.674;23.282;2023-06-14T10:29:24;9.60;;;8.70;;
6392;SDS011;3229;42.674;23.282;2023-06-14T10:31:56;10.32;;;9.10;;
6392;SDS011;3229;42.674;23.282;2023-06-14T10:34:24;11.43;;;9.50;;
6392;SDS011;3229;42.674;23.282;2023-06-14T10:37:00;9.90;;;8.82;;
6392;SDS011;3229;42.674;23.282;2023-06-14T10:39:29;12.65;;;9.38;;
6392;SDS011;3229;42.674;23.282;2023-06-14T10:41:56;15.57;;;10.90;;
6392;SDS011;3229;42.674;23.282;2023-06-14T10:50:03;13.25;;;9.77;;
6392;SDS011;3229;42.674;23.282;2023-06-14T10:52:32;10.32;;;9.27;;
6392;SDS011;3229;42.674;23.282;2023-06-14T10:55:08;11.32;;;10.02;;
6392;SDS011;3229;42.674;23.282;2023-06-14T10:57:36;13.63;;;9.27;;
6392;SDS011;3229;42.674;23.282;2023-06-14T11:00:05;13.02;;;9.02;;
6392;SDS011;3229;42.674;23.282;2023-06-14T11:02:51;11.50;;;8.50;;
6392;SDS011;3229;42.674;23.282;2023-06-14T11:05:25;11.23;;;8.68;;
6392;SDS011;3229;42.674;23.282;2023-06-14T11:08:04;12.45;;;9.57;;
6392;SDS011;3229;42.674;23.282;2023-06-14T11:10:45;9.95;;;7.90;;
6392;SDS011;3229;42.674;23.282;2023-06-14T11:13:12;10.00;;;8.75;;
6392;SDS011;3229;42.674;23.282;2023-06-14T11:15:43;9.85;;;8.85;;
6392;SDS011;3229;42.674;23.282;2023-06-14T11:18:13;9.65;;;8.65;;
6392;SDS011;3229;42.674;23.282;2023-06-14T11:20:41;10.75;;;8.95;;
6392;SDS011;3229;42.674;23.282;2023-06-14T11:23:08;11.60;;;9.35;;
6392;SDS011;3229;42.674;23.282;2023-06-14T11:25:35;9.65;;;8.55;;
6392;SDS011;3229;42.674;23.282;2023-06-14T11:28:02;11.00;;;9.27;;
6392;SDS011;3229;42.674;23.282;2023-06-14T11:30:28;9.32;;;8.52;;
6392;SDS011;3229;42.674;23.282;2023-06-14T11:32:55;10.35;;;8.55;;
6392;SDS011;3229;42.674;23.282;2023-06-14T11:35:23;11.48;;;8.50;;
6392;SDS011;3229;42.674;23.282;2023-06-14T11:37:52;10.32;;;9.02;;
6392;SDS011;3229;42.674;23.282;2023-06-14T11:40:22;8.23;;;7.43;;
6392;SDS011;3229;42.674;23.282;2023-06-14T11:42:50;9.13;;;8.13;;
6392;SDS011;3229;42.674;23.282;2023-06-14T11:45:24;9.95;;;8.90;;
6392;SDS011;3229;42.674;23.282;2023-06-14T11:47:51;9.70;;;8.18;;
6392;SDS011;3229;42.674;23.282;2023-06-14T11:50:21;9.80;;;8.70;;
6392;SDS011;3229;42.674;23.282;2023-06-14T11:52:53;9.13;;;8.23;;
6392;SDS011;3229;42.674;23.282;2023-06-14T11:55:20;8.57;;;7.78;;
6392;SDS011;3229;42.674;23.282;2023-06-14T11:57:47;8.80;;;8.00;;
6392;SDS011;3229;42.674;23.282;2023-06-14T12:00:14;8.85;;;7.95;;
6392;SDS011;3229;42.674;23.282;2023-06-14T12:02:42;12.35;;;8.00;;
6392;SDS011;3229;42.674;23.282;2023-06-14T12:05:20;8.43;;;7.65;;
6392;SDS011;3229;42.674;23.282;2023-06-14T12:07:47;12.35;;;7.53;;
6392;SDS011;3229;42.674;23.282;2023-06-14T12:10:16;9.30;;;7.75;;
6392;SDS011;3229;42.674;23.282;2023-06-14T12:12:43;9.07;;;7.43;;
6392;SDS011;3229;42.674;23.282;2023-06-14T12:15:10;7.55;;;6.85;;
6392;SDS011;3229;42.674;23.282;2023-06-14T12:17:38;8.20;;;7.18;;
6392;SDS011;3229;42.674;23.282;2023-06-14T12:20:07;8.90;;;8.10;;
6392;SDS011;3229;42.674;23.282;2023-06-14T12:22:39;9.52;;;7.38;;
6392;SDS011;3229;42.674;23.282;2023-06-14T12:25:06;8.13;;;7.13;;
6392;SDS011;3229;42.674;23.282;2023-06-14T12:27:39;7.80;;;6.78;;
6392;SDS011;3229;42.674;23.282;2023-06-14T12:30:06;12.68;;;6.72;;
6392;SDS011;3229;42.674;23.282;2023-06-14T12:32:34;10.57;;;6.78;;
6392;SDS011;3229;42.674;23.282;2023-06-14T12:35:01;7.63;;;6.80;;
6392;SDS011;3229;42.674;23.282;2023-06-14T12:37:28;6.80;;;6.20;;
6392;SDS011;3229;42.674;23.282;2023-06-14T12:39:55;6.80;;;6.20;;
6392;SDS011;3229;42.674;23.282;2023-06-14T12:42:21;7.20;;;6.53;;
6392;SDS011;3229;42.674;23.282;2023-06-14T12:44:49;5.70;;;5.13;;
6392;SDS011;3229;42.674;23.282;2023-06-14T12:47:16;7.70;;;6.75;;
6392;SDS011;3229;42.674;23.282;2023-06-14T12:49:43;7.40;;;6.45;;
6392;SDS011;3229;42.674;23.282;2023-06-14T12:52:10;6.80;;;6.00;;
6392;SDS011;3229;42.674;23.282;2023-06-14T12:54:37;6.40;;;5.90;;
6392;SDS011;3229;42.674;23.282;2023-06-14T12:57:04;10.32;;;5.65;;
6392;SDS011;3229;42.674;23.282;2023-06-14T12:59:31;6.40;;;5.80;;
6392;SDS011;3229;42.674;23.282;2023-06-14T13:02:01;7.00;;;6.30;;
6392;SDS011;3229;42.674;23.282;2023-06-14T13:04:37;6.63;;;5.57;;
6392;SDS011;3229;42.674;23.282;2023-06-14T13:07:04;7.38;;;5.93;;
6392;SDS011;3229;42.674;23.282;2023-06-14T13:09:31;6.85;;;6.22;;
6392;SDS011;3229;42.674;23.282;2023-06-14T13:11:58;6.05;;;5.53;;
6392;SDS011;3229;42.674;23.282;2023-06-14T13:14:25;11.48;;;6.40;;
6392;SDS011;3229;42.674;23.282;2023-06-14T13:16:52;9.18;;;5.72;;
6392;SDS011;3229;42.674;23.282;2023-06-14T13:19:20;6.90;;;6.30;;
6392;SDS011;3229;42.674;23.282;2023-06-14T13:21:47;7.03;;;6.07;;
6392;SDS011;3229;42.674;23.282;2023-06-14T13:24:14;8.70;;;6.47;;
6392;SDS011;3229;42.674;23.282;2023-06-14T13:26:41;7.95;;;6.30;;
6392;SDS011;3229;42.674;23.282;2023-06-14T13:29:08;6.47;;;5.88;;
6392;SDS011;3229;42.674;23.282;2023-06-14T13:31:35;6.47;;;5.72;;
6392;SDS011;3229;42.674;23.282;2023-06-14T13:34:02;9.43;;;5.47;;
6392;SDS011;3229;42.674;23.282;2023-06-14T13:36:31;6.50;;;5.90;;
6392;SDS011;3229;42.674;23.282;2023-06-14T13:38:57;6.03;;;5.43;;
6392;SDS011;3229;42.674;23.282;2023-06-14T13:41:25;8.38;;;6.45;;
6392;SDS011;3229;42.674;23.282;2023-06-14T13:43:56;9.57;;;5.35;;
6392;SDS011;3229;42.674;23.282;2023-06-14T13:46:24;5.97;;;5.40;;
6392;SDS011;3229;42.674;23.282;2023-06-14T13:48:51;6.20;;;5.30;;
6392;SDS011;3229;42.674;23.282;2023-06-14T13:51:17;12.10;;;5.60;;
6392;SDS011;3229;42.674;23.282;2023-06-14T13:53:47;8.32;;;6.28;;
6392;SDS011;3229;42.674;23.282;2023-06-14T13:56:15;6.00;;;5.40;;
6392;SDS011;3229;42.674;23.282;2023-06-14T13:58:42;6.32;;;5.72;;
6392;SDS011;3229;42.674;23.282;2023-06-14T14:01:09;9.05;;;6.15;;
6392;SDS011;3229;42.674;23.282;2023-06-14T14:03:36;8.60;;;7.03;;
6392;SDS011;3229;42.674;23.282;2023-06-14T14:06:03;8.77;;;6.75;;
6392;SDS011;3229;42.674;23.282;2023-06-14T14:08:32;8.65;;;6.85;;
6392;SDS011;3229;42.674;23.282;2023-06-14T14:11:00;8.77;;;7.38;;
6392;SDS011;3229;42.674;23.282;2023-06-14T14:13:27;6.82;;;6.13;;
6392;SDS011;3229;42.674;23.282;2023-06-14T14:15:54;11.07;;;6.75;;
6392;SDS011;3229;42.674;23.282;2023-06-14T14:18:21;8.85;;;6.88;;
6392;SDS011;3229;42.674;23.282;2023-06-14T14:20:47;8.40;;;6.65;;
6392;SDS011;3229;42.674;23.282;2023-06-14T14:23:14;7.15;;;6.45;;
6392;SDS011;3229;42.674;23.282;2023-06-14T14:25:41;6.80;;;6.10;;
6392;SDS011;3229;42.674;23.282;2023-06-14T14:28:09;6.88;;;6.28;;
6392;SDS011;3229;42.674;23.282;2023-06-14T14:30:36;7.47;;;6.80;;
6392;SDS011;3229;42.674;23.282;2023-06-14T14:33:05;6.35;;;5.78;;
6392;SDS011;3229;42.674;23.282;2023-06-14T14:35:32;5.55;;;5.05;;
6392;SDS011;3229;42.674;23.282;2023-06-14T14:37:59;5.43;;;4.85;;
6392;SDS011;3229;42.674;23.282;2023-06-14T14:40:25;5.13;;;4.63;;
6392;SDS011;3229;42.674;23.282;2023-06-14T14:42:52;5.03;;;4.35;;
6392;SDS011;3229;42.674;23.282;2023-06-14T14:45:20;5.03;;;4.53;;
6392;SDS011;3229;42.674;23.282;2023-06-14T14:47:47;5.30;;;4.80;;
6392;SDS011;3229;42.674;23.282;2023-06-14T14:50:14;5.85;;;5.35;;
6392;SDS011;3229;42.674;23.282;2023-06-14T14:52:41;6.18;;;5.57;;
6392;SDS011;3229;42.674;23.282;2023-06-14T14:55:08;6.28;;;5.68;;
6392;SDS011;3229;42.674;23.282;2023-06-14T14:57:35;6.82;;;5.80;;
6392;SDS011;3229;42.674;23.282;2023-06-14T15:00:02;7.60;;;6.10;;
6392;SDS011;3229;42.674;23.282;2023-06-14T15:02:32;6.78;;;5.80;;
6392;SDS011;3229;42.674;23.282;2023-06-14T15:04:58;7.00;;;6.30;;